Time;durP1;ratioP1;P1;durP2;ratioP2;P2;SDS_P1;SDS_P2;PMS_P1;PMS_P2;Temp;Humidity;BMP_temperature;BMP_pressure;BME280_temperature;BME280_humidity;BME280_pressure;Samples;Min_cycle;Max_cycle;Signal;HPM_P1;HPM_P2
2022/10/30 00:01:23;;;;;;;1.03;0.60;;;16.90;99.90;;;;;;5096565;28;20857;-86
2022/10/30 00:03:50;;;;;;;2.30;0.60;;;16.80;99.90;;;;;;5096604;28;20440;-86
2022/10/30 00:06:17;;;;;;;1.27;0.60;;;16.80;99.90;;;;;;5096542;28;20448;-86
2022/10/30 00:08:44;;;;;;;1.30;1.20;;;16.80;99.90;;;;;;5096561;28;20451;-87
2022/10/30 00:11:12;;;;;;;0.67;0.67;;;16.80;99.90;;;;;;5096422;28;20468;-87
2022/10/30 00:13:42;;;;;;;2.30;0.90;;;16.80;99.90;;;;;;5096438;28;20445;-86
2022/10/30 00:16:10;;;;;;;1.00;0.70;;;16.70;99.90;;;;;;5096176;28;20484;-86
2022/10/30 00:18:38;;;;;;;0.60;0.57;;;16.70;99.90;;;;;;5096054;28;20461;-86
2022/10/30 00:21:07;;;;;;;3.43;0.70;;;16.70;99.90;;;;;;5096232;28;20457;-86
2022/10/30 00:23:34;;;;;;;1.90;0.67;;;16.70;99.90;;;;;;5096184;28;20445;-86
2022/10/30 00:26:05;;;;;;;2.77;0.87;;;16.70;99.90;;;;;;5096243;28;20448;-86
2022/10/30 00:28:31;;;;;;;1.40;0.70;;;16.80;99.90;;;;;;5096134;28;20453;-86
2022/10/30 00:31:03;;;;;;;1.23;0.90;;;16.80;99.90;;;;;;5095658;28;20480;-86
2022/10/30 00:33:31;;;;;;;1.27;0.60;;;16.90;99.90;;;;;;5096092;28;20444;-86
2022/10/30 00:35:59;;;;;;;2.77;0.50;;;17.00;99.90;;;;;;5096559;28;20920;-86
2022/10/30 00:38:25;;;;;;;0.60;0.60;;;16.90;99.90;;;;;;5095819;28;20480;-86
2022/10/30 00:40:52;;;;;;;1.00;1.00;;;17.00;99.90;;;;;;5095861;28;20456;-86
2022/10/30 00:43:30;;;;;;;0.63;0.53;;;17.00;99.90;;;;;;5095545;28;20448;-86
2022/10/30 00:46:00;;;;;;;0.60;0.57;;;17.10;99.90;;;;;;5095563;28;20459;-87
2022/10/30 00:48:28;;;;;;;1.90;0.60;;;17.00;99.90;;;;;;5096050;28;20445;-86
2022/10/30 00:50:59;;;;;;;3.90;0.90;;;17.00;99.90;;;;;;5095658;28;20447;-86
2022/10/30 00:53:26;;;;;;;2.20;0.80;;;17.00;99.90;;;;;;5095747;28;20433;-87
2022/10/30 00:55:55;;;;;;;1.30;0.80;;;17.00;99.90;;;;;;5095302;28;20444;-86
2022/10/30 00:58:28;;;;;;;0.80;0.70;;;17.00;99.90;;;;;;5095510;28;20476;-85
2022/10/30 01:00:58;;;;;;;0.80;0.80;;;17.00;99.90;;;;;;5095506;28;20807;-86
2022/10/30 01:03:27;;;;;;;1.07;0.50;;;16.90;99.90;;;;;;5095137;28;20452;-86
2022/10/30 01:05:58;;;;;;;1.00;0.60;;;16.90;99.90;;;;;;5095402;28;20445;-86
2022/10/30 01:08:25;;;;;;;10.00;0.80;;;16.80;99.90;;;;;;5094571;28;20425;-86
2022/10/30 01:10:52;;;;;;;0.97;0.80;;;16.80;99.90;;;;;;5095218;28;20452;-85
2022/10/30 01:13:22;;;;;;;1.00;0.80;;;16.80;99.90;;;;;;5094905;28;20535;-86
2022/10/30 01:16:07;;;;;;;1.07;0.70;;;16.70;99.90;;;;;;5095106;28;20463;-85
2022/10/30 01:18:41;;;;;;;1.17;0.70;;;16.60;99.90;;;;;;5095019;28;20491;-84
2022/10/30 01:21:19;;;;;;;1.70;0.80;;;16.60;99.90;;;;;;5095083;28;20468;-85
2022/10/30 01:23:56;;;;;;;4.13;0.80;;;16.50;99.90;;;;;;5095190;28;20428;-85
2022/10/30 01:26:33;;;;;;;2.23;0.77;;;16.40;99.90;;;;;;5094725;28;20436;-85
2022/10/30 01:29:11;;;;;;;3.63;1.00;;;16.40;99.90;;;;;;5110541;28;20431;-84
2022/10/30 01:31:51;;;;;;;0.73;0.73;;;16.30;99.90;;;;;;5110888;28;20469;-85
2022/10/30 01:34:21;;;;;;;0.80;0.70;;;16.20;99.90;;;;;;5109375;28;20424;-85
2022/10/30 01:36:56;;;;;;;1.00;0.70;;;16.20;99.90;;;;;;5105051;28;20444;-84
2022/10/30 01:39:26;;;;;;;1.70;1.13;;;16.20;99.90;;;;;;5094838;28;20428;-85
2022/10/30 01:41:53;;;;;;;1.53;0.80;;;16.20;99.90;;;;;;5094846;28;20959;-85
2022/10/30 01:44:25;;;;;;;5.70;0.87;;;16.10;99.90;;;;;;5094364;28;20451;-84
2022/10/30 01:47:07;;;;;;;1.43;0.90;;;16.10;99.90;;;;;;5094632;28;20433;-85
2022/10/30 01:50:09;;;;;;;0.87;0.83;;;16.00;99.90;;;;;;5094656;28;20436;-85
2022/10/30 01:52:46;;;;;;;1.10;0.90;;;16.00;99.90;;;;;;5094148;28;20470;-85
2022/10/30 01:55:22;;;;;;;1.80;0.60;;;16.00;99.90;;;;;;5094543;28;20440;-85
2022/10/30 01:57:57;;;;;;;1.60;0.70;;;15.90;99.90;;;;;;5094901;28;20472;-85
2022/10/30 02:00:24;;;;;;;0.90;0.60;;;15.90;99.90;;;;;;5094117;28;20417;-85
2022/10/30 02:02:51;;;;;;;1.53;0.80;;;15.90;99.90;;;;;;5094208;28;20464;-85
2022/10/30 02:05:26;;;;;;;3.93;0.87;;;15.80;99.90;;;;;;5094278;28;20459;-85
2022/10/30 02:07:54;;;;;;;1.37;0.80;;;15.80;99.90;;;;;;5094370;28;20420;-84
2022/10/30 02:10:21;;;;;;;0.93;0.83;;;15.80;99.90;;;;;;5093921;28;20939;-84
2022/10/30 02:12:48;;;;;;;1.37;0.70;;;15.80;99.90;;;;;;5094069;28;20805;-84
2022/10/30 02:15:16;;;;;;;1.27;0.80;;;15.80;99.90;;;;;;5093883;28;20453;-85
2022/10/30 02:17:43;;;;;;;1.47;0.90;;;15.80;99.90;;;;;;5093634;28;20863;-85
2022/10/30 02:20:15;;;;;;;1.67;0.70;;;15.80;99.90;;;;;;5093628;28;20943;-85
2022/10/30 02:22:42;;;;;;;0.70;0.70;;;15.80;99.90;;;;;;5093639;28;20488;-85
2022/10/30 02:25:09;;;;;;;1.80;0.70;;;15.70;99.90;;;;;;5093975;28;20444;-85
2022/10/30 02:27:36;;;;;;;8.63;0.60;;;15.70;99.90;;;;;;5093879;28;20472;-85
2022/10/30 02:30:04;;;;;;;0.87;0.50;;;15.70;99.90;;;;;;5094283;28;20428;-85
2022/10/30 02:32:31;;;;;;;4.43;1.00;;;15.70;99.90;;;;;;5093529;28;20449;-85
2022/10/30 02:34:57;;;;;;;0.70;0.53;;;15.70;99.90;;;;;;5093795;28;20452;-85
2022/10/30 02:37:26;;;;;;;1.00;0.77;;;15.70;99.90;;;;;;5093713;28;20491;-85
2022/10/30 02:39:52;;;;;;;0.73;0.60;;;15.70;99.90;;;;;;5093664;28;20455;-85
2022/10/30 02:42:19;;;;;;;7.07;0.80;;;15.70;99.90;;;;;;5093657;28;20471;-85
2022/10/30 02:44:46;;;;;;;2.73;0.60;;;15.70;99.90;;;;;;5093728;28;20444;-85
2022/10/30 02:47:13;;;;;;;0.80;0.50;;;15.70;99.90;;;;;;5093606;28;20455;-85
2022/10/30 02:49:39;;;;;;;0.57;0.57;;;15.60;99.90;;;;;;5093617;28;20453;-85
2022/10/30 02:52:07;;;;;;;1.13;0.73;;;15.60;99.90;;;;;;5093465;28;20464;-85
2022/10/30 02:54:35;;;;;;;2.53;1.27;;;15.50;99.90;;;;;;5093235;28;20939;-85
2022/10/30 02:57:02;;;;;;;1.43;0.93;;;15.50;99.90;;;;;;5093615;28;20444;-85
2022/10/30 02:59:29;;;;;;;3.40;0.80;;;15.50;99.90;;;;;;5093403;28;20491;-84
2022/10/30 03:01:56;;;;;;;0.77;0.60;;;15.40;99.90;;;;;;5093345;28;20470;-85
2022/10/30 03:04:23;;;;;;;4.73;0.93;;;15.40;99.90;;;;;;5093461;28;20452;-85
2022/10/30 03:06:50;;;;;;;2.53;0.77;;;15.40;99.90;;;;;;5093414;28;20459;-85
2022/10/30 03:09:16;;;;;;;1.87;0.90;;;15.40;99.90;;;;;;5093098;28;20453;-85
2022/10/30 03:11:45;;;;;;;4.10;0.70;;;15.40;99.90;;;;;;5093270;28;20845;-85
2022/10/30 03:14:12;;;;;;;1.77;0.70;;;15.30;99.90;;;;;;5093089;28;20951;-85
2022/10/30 03:16:38;;;;;;;1.73;0.90;;;15.30;99.90;;;;;;5093071;28;20476;-85
2022/10/30 03:19:05;;;;;;;1.90;0.50;;;15.30;99.90;;;;;;5093029;28;21018;-85
2022/10/30 03:21:32;;;;;;;1.50;0.77;;;15.30;99.90;;;;;;5093288;28;20480;-85
2022/10/30 03:23:59;;;;;;;1.57;0.90;;;15.20;99.90;;;;;;5093275;28;20441;-85
2022/10/30 03:26:26;;;;;;;0.77;0.77;;;15.10;99.90;;;;;;5093808;28;20475;-85
2022/10/30 03:28:54;;;;;;;0.93;0.80;;;15.20;99.90;;;;;;5093343;28;20452;-85
2022/10/30 03:31:21;;;;;;;1.07;0.80;;;15.20;99.90;;;;;;5093537;28;20526;-85
2022/10/30 03:33:48;;;;;;;1.60;0.90;;;15.20;99.90;;;;;;5097273;28;20928;-86
2022/10/30 03:36:15;;;;;;;1.53;0.97;;;15.10;99.90;;;;;;5097263;28;20446;-85
2022/10/30 03:38:42;;;;;;;4.63;0.93;;;15.10;99.90;;;;;;5100499;28;20480;-85
2022/10/30 03:41:09;;;;;;;2.43;1.10;;;15.00;99.90;;;;;;5097199;28;20822;-84
2022/10/30 03:43:36;;;;;;;1.80;1.13;;;15.00;99.90;;;;;;5096813;28;20790;-86
2022/10/30 03:46:05;;;;;;;4.67;1.50;;;15.00;99.90;;;;;;5096754;28;20424;-85
2022/10/30 03:48:31;;;;;;;4.23;1.03;;;14.90;99.90;;;;;;5096959;28;20441;-86
2022/10/30 03:50:59;;;;;;;2.27;1.10;;;14.90;99.90;;;;;;5096933;28;20474;-85
2022/10/30 03:53:27;;;;;;;0.60;0.60;;;14.80;99.90;;;;;;5096658;28;20448;-85
2022/10/30 03:55:59;;;;;;;2.40;1.43;;;14.80;99.90;;;;;;5096856;28;20445;-85
2022/10/30 03:58:26;;;;;;;2.60;0.80;;;14.80;99.90;;;;;;5096729;28;20464;-85
2022/10/30 04:00:52;;;;;;;1.73;0.80;;;14.70;99.90;;;;;;5096611;28;20452;-85
2022/10/30 04:03:21;;;;;;;2.60;0.50;;;14.70;99.90;;;;;;5096730;28;20451;-86
2022/10/30 04:05:49;;;;;;;1.57;0.87;;;14.60;99.90;;;;;;5096318;28;20943;-85
2022/10/30 04:08:16;;;;;;;1.13;0.73;;;14.60;99.90;;;;;;5096589;28;20531;-85
2022/10/30 04:10:44;;;;;;;1.00;0.70;;;14.60;99.90;;;;;;5096437;28;20447;-84
2022/10/30 04:13:12;;;;;;;0.80;0.80;;;14.60;99.90;;;;;;5096563;28;20821;-86
2022/10/30 04:15:38;;;;;;;2.80;0.97;;;14.50;99.90;;;;;;5106883;28;20448;-85
2022/10/30 04:18:05;;;;;;;1.57;0.87;;;14.50;99.90;;;;;;5111617;28;20488;-85
2022/10/30 04:20:34;;;;;;;0.70;0.70;;;14.50;99.90;;;;;;5111521;28;20458;-84
2022/10/30 04:23:02;;;;;;;3.30;0.87;;;14.40;99.90;;;;;;5111753;28;20463;-84
2022/10/30 04:25:30;;;;;;;1.83;1.00;;;14.40;99.90;;;;;;5096926;28;20871;-85
2022/10/30 04:27:57;;;;;;;2.53;0.80;;;14.40;99.90;;;;;;5095929;28;20464;-85
2022/10/30 04:30:26;;;;;;;0.67;0.67;;;14.30;99.90;;;;;;5096221;28;20445;-85
2022/10/30 04:32:54;;;;;;;0.90;0.70;;;14.30;99.90;;;;;;5096093;28;20476;-85
2022/10/30 04:35:23;;;;;;;0.80;0.70;;;14.30;99.90;;;;;;5096026;28;20444;-85
2022/10/30 04:37:54;;;;;;;2.33;0.83;;;14.30;99.90;;;;;;5095989;28;20810;-85
2022/10/30 04:40:22;;;;;;;0.77;0.77;;;14.20;99.90;;;;;;5095946;28;20425;-85
2022/10/30 04:42:49;;;;;;;1.90;0.60;;;14.20;99.90;;;;;;5094482;28;20536;-85
2022/10/30 04:45:16;;;;;;;0.70;0.70;;;14.10;99.90;;;;;;5095643;28;20825;-85
2022/10/30 04:47:43;;;;;;;3.10;0.40;;;14.10;99.90;;;;;;5095532;28;20449;-85
2022/10/30 04:50:11;;;;;;;4.10;1.27;;;14.10;99.90;;;;;;5095421;28;20798;-85
2022/10/30 04:52:38;;;;;;;1.20;0.70;;;14.10;99.90;;;;;;5095697;28;20460;-85
2022/10/30 04:55:08;;;;;;;2.50;0.80;;;14.10;99.90;;;;;;5095276;28;20932;-85
2022/10/30 04:57:35;;;;;;;0.93;0.77;;;14.00;99.90;;;;;;5095633;28;20444;-85
2022/10/30 05:00:03;;;;;;;0.50;0.50;;;14.00;99.90;;;;;;5095425;28;20533;-85
2022/10/30 05:02:29;;;;;;;1.10;0.70;;;14.00;99.90;;;;;;5095075;28;20976;-84
2022/10/30 05:04:56;;;;;;;0.97;0.40;;;13.90;99.90;;;;;;5095177;28;20935;-85
2022/10/30 05:07:23;;;;;;;2.03;1.00;;;13.90;99.90;;;;;;5095094;28;20947;-85
2022/10/30 05:09:50;;;;;;;3.03;0.80;;;13.90;99.90;;;;;;5095275;28;20437;-85
2022/10/30 05:12:18;;;;;;;1.10;0.77;;;13.90;99.90;;;;;;5095244;28;20460;-85
2022/10/30 05:14:45;;;;;;;0.80;0.60;;;13.90;99.90;;;;;;5094908;28;20951;-85
2022/10/30 05:17:12;;;;;;;0.70;0.70;;;13.90;99.90;;;;;;5094710;28;20480;-85
2022/10/30 05:19:38;;;;;;;0.73;0.40;;;13.90;99.90;;;;;;5094747;28;20480;-85
2022/10/30 05:22:05;;;;;;;0.73;0.50;;;13.80;99.90;;;;;;5095568;28;20820;-85
2022/10/30 05:24:32;;;;;;;0.77;0.77;;;13.80;99.90;;;;;;5095024;28;20814;-85
2022/10/30 05:26:59;;;;;;;1.63;1.53;;;13.80;99.90;;;;;;5094934;28;20452;-85
2022/10/30 05:29:27;;;;;;;3.90;0.60;;;13.70;99.90;;;;;;5094983;28;20449;-85
2022/10/30 05:31:54;;;;;;;0.83;0.77;;;13.70;99.90;;;;;;5095202;28;20843;-85
2022/10/30 05:34:20;;;;;;;1.30;0.63;;;13.70;99.90;;;;;;5094903;28;20448;-84
2022/10/30 05:36:47;;;;;;;2.10;0.60;;;13.70;99.90;;;;;;5094840;28;20441;-85
2022/10/30 05:39:14;;;;;;;0.70;0.70;;;13.70;99.90;;;;;;5094749;28;20485;-85
2022/10/30 05:41:41;;;;;;;3.17;0.57;;;13.70;99.90;;;;;;5094632;28;20456;-85
2022/10/30 05:44:07;;;;;;;1.10;0.93;;;13.60;99.90;;;;;;5094695;28;20445;-85
2022/10/30 05:46:35;;;;;;;0.87;0.87;;;13.60;99.90;;;;;;5094628;28;20445;-85
2022/10/30 05:49:02;;;;;;;1.83;0.60;;;13.60;99.90;;;;;;5094547;28;20452;-85
2022/10/30 05:51:29;;;;;;;0.60;0.60;;;13.60;99.90;;;;;;5094169;28;21034;-85
2022/10/30 05:53:56;;;;;;;0.90;0.60;;;13.50;99.90;;;;;;5094202;28;20452;-85
2022/10/30 05:56:23;;;;;;;0.90;0.60;;;13.50;99.90;;;;;;5094444;28;20452;-85
2022/10/30 05:58:50;;;;;;;1.20;0.50;;;13.50;99.90;;;;;;5094307;28;20476;-85
2022/10/30 06:01:17;;;;;;;4.30;1.20;;;13.60;99.90;;;;;;5094050;28;20983;-85
2022/10/30 06:03:45;;;;;;;0.90;0.60;;;13.60;99.90;;;;;;5094016;28;20923;-85
2022/10/30 06:06:12;;;;;;;2.00;0.60;;;13.60;99.90;;;;;;5093967;28;20437;-85
2022/10/30 06:08:39;;;;;;;2.83;0.90;;;13.60;99.90;;;;;;5093939;28;20476;-84
2022/10/30 06:11:06;;;;;;;1.63;0.73;;;13.60;99.90;;;;;;5094170;28;20832;-85
2022/10/30 06:13:32;;;;;;;1.60;1.10;;;13.60;99.90;;;;;;5094111;28;20444;-85
2022/10/30 06:15:59;;;;;;;0.80;0.67;;;13.60;99.90;;;;;;5093889;28;20445;-85
2022/10/30 06:18:26;;;;;;;0.50;0.50;;;13.60;99.90;;;;;;5093749;28;20433;-85
2022/10/30 06:20:56;;;;;;;0.57;0.50;;;13.60;99.90;;;;;;5093710;28;20951;-85
2022/10/30 06:23:23;;;;;;;0.63;0.53;;;13.60;99.90;;;;;;5093975;28;20444;-85
2022/10/30 06:25:49;;;;;;;1.77;0.70;;;13.60;99.90;;;;;;5093961;28;20440;-84
2022/10/30 06:28:16;;;;;;;0.77;0.50;;;13.60;99.90;;;;;;5093918;28;20455;-85
2022/10/30 06:30:43;;;;;;;0.60;0.60;;;13.70;99.90;;;;;;5093547;28;20448;-85
2022/10/30 06:33:10;;;;;;;0.53;0.53;;;13.60;99.90;;;;;;5093451;28;20951;-84
2022/10/30 06:35:36;;;;;;;2.17;1.17;;;13.60;99.90;;;;;;5093809;28;20440;-85
2022/10/30 06:38:05;;;;;;;1.20;0.77;;;13.70;99.90;;;;;;5093489;28;20455;-85
2022/10/30 06:40:31;;;;;;;0.60;0.60;;;13.70;99.90;;;;;;5093733;28;20487;-85
2022/10/30 06:42:58;;;;;;;1.90;0.50;;;13.70;99.90;;;;;;5093626;28;20476;-85
2022/10/30 06:45:25;;;;;;;1.10;1.00;;;13.80;99.90;;;;;;5093367;28;20920;-85
2022/10/30 06:47:52;;;;;;;4.30;0.90;;;13.90;99.90;;;;;;5093651;28;20445;-85
2022/10/30 06:50:21;;;;;;;1.00;0.70;;;13.90;99.90;;;;;;5093631;28;20437;-85
2022/10/30 06:52:48;;;;;;;0.87;0.87;;;14.00;99.90;;;;;;5093289;28;20449;-85
2022/10/30 06:55:16;;;;;;;4.30;0.50;;;14.10;99.90;;;;;;5093341;28;20951;-85
2022/10/30 06:57:43;;;;;;;2.17;1.10;;;14.20;99.90;;;;;;5093364;28;20969;-85
2022/10/30 07:00:12;;;;;;;0.70;0.50;;;14.30;99.90;;;;;;5093392;28;20556;-85
2022/10/30 07:02:39;;;;;;;3.70;0.83;;;14.40;99.90;;;;;;5100926;28;20495;-84
2022/10/30 07:05:06;;;;;;;1.10;0.70;;;14.40;99.90;;;;;;5113502;28;20441;-84
2022/10/30 07:07:32;;;;;;;1.63;1.23;;;14.40;99.90;;;;;;5114983;28;20520;-84
2022/10/30 07:09:59;;;;;;;0.50;0.50;;;14.50;99.90;;;;;;5116039;28;20445;-85
2022/10/30 07:12:27;;;;;;;1.73;0.70;;;14.50;99.90;;;;;;5100990;28;20461;-85
2022/10/30 07:14:54;;;;;;;2.27;1.40;;;14.50;99.90;;;;;;5097433;28;20803;-85
2022/10/30 07:17:21;;;;;;;1.10;0.90;;;14.50;99.90;;;;;;5097183;28;20494;-85
2022/10/30 07:19:48;;;;;;;1.70;1.00;;;14.50;99.90;;;;;;5097079;28;20480;-85
2022/10/30 07:22:14;;;;;;;3.10;1.00;;;14.50;99.90;;;;;;5097503;28;20567;-85
2022/10/30 07:24:41;;;;;;;1.10;0.77;;;14.50;99.90;;;;;;5097421;28;20459;-85
2022/10/30 07:27:08;;;;;;;2.20;1.13;;;14.50;99.90;;;;;;5097676;28;20452;-85
2022/10/30 07:29:36;;;;;;;0.90;0.67;;;14.50;99.90;;;;;;5097036;28;20458;-85
2022/10/30 07:32:03;;;;;;;3.70;1.43;;;14.60;99.90;;;;;;5097204;28;20475;-84
2022/10/30 07:34:30;;;;;;;0.67;0.67;;;14.70;99.90;;;;;;5097057;28;20457;-84
2022/10/30 07:36:57;;;;;;;1.67;0.83;;;14.70;99.90;;;;;;5097110;28;20825;-84
2022/10/30 07:39:25;;;;;;;2.50;1.10;;;14.70;99.90;;;;;;5096955;28;20480;-84
2022/10/30 07:41:52;;;;;;;0.60;0.60;;;14.80;99.90;;;;;;5096880;28;20825;-84
2022/10/30 07:44:19;;;;;;;3.40;0.80;;;14.70;99.90;;;;;;5097145;28;20443;-84
2022/10/30 07:46:47;;;;;;;2.77;1.57;;;14.70;99.90;;;;;;5096734;28;20904;-85
2022/10/30 07:49:14;;;;;;;1.47;0.70;;;14.70;99.90;;;;;;5096709;28;20946;-85
2022/10/30 07:51:41;;;;;;;1.03;0.83;;;14.80;99.90;;;;;;5096782;28;20471;-85
2022/10/30 07:54:07;;;;;;;0.90;0.70;;;14.80;99.90;;;;;;5096597;28;20433;-84
2022/10/30 07:56:34;;;;;;;0.83;0.67;;;14.80;99.90;;;;;;5096844;28;20455;-85
2022/10/30 07:59:01;;;;;;;1.90;0.70;;;14.80;99.90;;;;;;5096437;28;20437;-85
2022/10/30 08:01:28;;;;;;;2.40;1.03;;;14.90;99.90;;;;;;5096623;28;20465;-84
2022/10/30 08:03:56;;;;;;;0.93;0.90;;;15.00;99.90;;;;;;5096728;28;20444;-85
2022/10/30 08:06:23;;;;;;;1.87;1.00;;;15.10;99.90;;;;;;5096685;28;20451;-84
2022/10/30 08:08:49;;;;;;;3.03;0.70;;;15.10;99.90;;;;;;5096629;28;20437;-84
2022/10/30 08:11:17;;;;;;;0.67;0.60;;;15.30;99.90;;;;;;5096400;28;20468;-86
2022/10/30 08:13:44;;;;;;;1.37;1.27;;;15.40;99.90;;;;;;5096510;28;20487;-84
2022/10/30 08:16:11;;;;;;;0.70;0.60;;;15.50;99.90;;;;;;5096261;28;20485;-85
2022/10/30 08:18:41;;;;;;;1.80;0.83;;;15.60;99.90;;;;;;5095804;28;20797;-85
2022/10/30 08:21:09;;;;;;;1.03;0.93;;;15.80;99.90;;;;;;5096164;28;20477;-85
2022/10/30 08:23:36;;;;;;;2.50;1.00;;;15.90;99.90;;;;;;5096257;28;20902;-87
2022/10/30 08:26:02;;;;;;;1.20;0.90;;;16.10;99.90;;;;;;5095977;28;20433;-85
2022/10/30 08:28:29;;;;;;;1.03;0.90;;;16.40;99.90;;;;;;5096305;28;20441;-85
2022/10/30 08:30:57;;;;;;;1.73;1.00;;;16.60;99.90;;;;;;5095800;28;20456;-86
2022/10/30 08:33:24;;;;;;;1.80;0.90;;;16.90;99.90;;;;;;5096152;28;20451;-85
2022/10/30 08:35:52;;;;;;;0.90;0.73;;;17.20;99.90;;;;;;5096078;28;20448;-85
2022/10/30 08:38:20;;;;;;;4.00;1.07;;;17.60;99.90;;;;;;5095987;28;20440;-85
2022/10/30 08:40:47;;;;;;;1.43;1.00;;;18.00;99.90;;;;;;5095860;28;20863;-85
2022/10/30 08:43:14;;;;;;;1.53;1.40;;;18.70;99.90;;;;;;5095823;28;20812;-85
2022/10/30 08:45:41;;;;;;;2.33;1.17;;;19.60;99.90;;;;;;5095915;28;20475;-85
2022/10/30 08:48:11;;;;;;;0.97;0.77;;;20.60;99.90;;;;;;5096039;28;20453;-85
2022/10/30 08:50:38;;;;;;;3.90;1.40;;;21.60;99.90;;;;;;5096091;28;20436;-85
2022/10/30 08:53:06;;;;;;;1.70;1.30;;;22.60;99.90;;;;;;5095748;28;20444;-85
2022/10/30 08:55:35;;;;;;;2.10;1.43;;;23.50;99.90;;;;;;5096278;28;20444;-89
2022/10/30 08:58:02;;;;;;;3.43;1.37;;;24.30;99.90;;;;;;5096526;28;20420;-89
2022/10/30 09:00:29;;;;;;;1.25;1.15;;;25.30;99.90;;;;;;5097247;28;20684;-89
2022/10/30 09:02:56;;;;;;;1.20;1.00;;;26.50;99.90;;;;;;5096598;28;20228;-89
2022/10/30 09:05:23;;;;;;;1.23;1.02;;;27.70;99.90;;;;;;5096454;28;20198;-89
2022/10/30 09:07:50;;;;;;;5.60;1.77;;;28.60;98.70;;;;;;5096747;28;20292;-90
2022/10/30 09:10:17;;;;;;;0.90;0.90;;;29.40;95.10;;;;;;5096722;28;20201;-90
2022/10/30 09:12:45;;;;;;;4.10;1.48;;;30.00;92.90;;;;;;5096536;28;20693;-89
2022/10/30 09:15:11;;;;;;;1.80;1.00;;;30.40;91.80;;;;;;5096249;28;20194;-90
2022/10/30 09:17:38;;;;;;;2.92;1.40;;;30.70;89.60;;;;;;5096109;28;20230;-90
2022/10/30 09:20:06;;;;;;;3.53;2.00;;;30.70;85.20;;;;;;5097013;28;20232;-89
2022/10/30 09:22:32;;;;;;;3.00;1.40;;;30.70;84.10;;;;;;5096229;28;20218;-90
2022/10/30 09:24:59;;;;;;;4.40;1.60;;;30.80;81.60;;;;;;5096412;28;20194;-87
2022/10/30 09:27:26;;;;;;;2.97;1.30;;;30.80;80.80;;;;;;5096515;28;20297;-91
2022/10/30 09:29:54;;;;;;;2.67;1.00;;;30.70;79.40;;;;;;5095328;28;20198;-90
2022/10/30 09:32:21;;;;;;;2.55;1.27;;;30.70;79.00;;;;;;5095933;28;20222;-90
2022/10/30 09:34:48;;;;;;;1.50;1.10;;;30.60;78.80;;;;;;5096198;28;20221;-91
2022/10/30 09:37:15;;;;;;;4.07;1.00;;;30.40;79.10;;;;;;5098548;28;20186;-90
2022/10/30 09:39:42;;;;;;;2.40;1.10;;;30.20;78.80;;;;;;5098742;28;20221;-90
2022/10/30 09:42:32;;;;;;;0.93;0.90;;;30.00;79.90;;;;;;5106576;28;20221;-90
2022/10/30 09:45:20;;;;;;;1.67;0.85;;;30.00;78.40;;;;;;5102437;28;20244;-90
2022/10/30 09:48:00;;;;;;;1.13;1.00;;;30.30;76.40;;;;;;5100716;28;20190;-90
2022/10/30 09:50:32;;;;;;;2.53;1.52;;;30.80;75.00;;;;;;5099432;28;20182;-89
2022/10/30 09:53:06;;;;;;;1.35;0.90;;;31.50;72.90;;;;;;5100000;28;20222;-90
2022/10/30 09:55:42;;;;;;;2.35;1.38;;;31.90;68.80;;;;;;5100661;28;20186;-90
2022/10/30 09:58:35;;;;;;;2.67;1.00;;;32.00;70.00;;;;;;5100124;28;20672;-89
2022/10/30 10:01:16;;;;;;;0.85;0.85;;;32.20;66.60;;;;;;5101054;28;20233;-90
2022/10/30 10:03:57;;;;;;;1.90;0.93;;;31.70;65.30;;;;;;5099528;28;20276;-90
2022/10/30 10:06:26;;;;;;;0.70;0.70;;;30.90;65.40;;;;;;5102958;28;20182;-92
2022/10/30 10:08:58;;;;;;;0.85;0.85;;;30.10;67.10;;;;;;5108011;28;20270;-90
2022/10/30 10:11:33;;;;;;;1.98;0.88;;;29.10;69.20;;;;;;5107480;28;20229;-89
2022/10/30 10:14:07;;;;;;;1.05;0.60;;;28.30;70.40;;;;;;5110066;28;20648;-90
2022/10/30 10:16:38;;;;;;;0.80;0.75;;;27.50;70.80;;;;;;5110254;28;20621;-91
2022/10/30 10:19:14;;;;;;;6.50;1.00;;;26.90;71.60;;;;;;5108856;28;20178;-89
2022/10/30 10:21:45;;;;;;;2.33;0.90;;;26.30;74.10;;;;;;5109859;28;20230;-90
2022/10/30 10:24:18;;;;;;;0.70;0.70;;;26.00;77.10;;;;;;5110932;28;20178;-90
2022/10/30 10:26:49;;;;;;;2.42;0.73;;;25.80;79.70;;;;;;5109402;28;20186;-90
2022/10/30 10:29:42;;;;;;;1.02;0.55;;;25.50;78.10;;;;;;5107370;28;20190;-86
2022/10/30 10:32:41;;;;;;;4.13;0.80;;;25.40;77.00;;;;;;5096184;28;20218;-85
2022/10/30 10:35:35;;;;;;;0.73;0.68;;;25.20;80.10;;;;;;5096651;28;20197;-85
2022/10/30 10:38:08;;;;;;;5.15;0.75;;;25.10;81.20;;;;;;5096298;28;20225;-84
2022/10/30 10:40:49;;;;;;;0.70;0.60;;;25.00;82.50;;;;;;5096062;28;20206;-84
2022/10/30 10:43:28;;;;;;;2.15;0.52;;;24.90;81.50;;;;;;5098412;28;20190;-86
2022/10/30 10:46:10;;;;;;;1.48;1.38;;;24.80;83.30;;;;;;5096108;28;20213;-86
2022/10/30 10:48:56;;;;;;;0.63;0.63;;;24.70;81.60;;;;;;5096702;28;20182;-85
2022/10/30 10:51:28;;;;;;;0.50;0.50;;;24.70;80.30;;;;;;5096121;28;20229;-85
2022/10/30 10:53:59;;;;;;;2.15;0.80;;;24.60;80.10;;;;;;5096323;28;20192;-86
2022/10/30 10:56:32;;;;;;;0.60;0.60;;;24.60;81.40;;;;;;5095909;28;20197;-85
2022/10/30 10:59:04;;;;;;;0.90;0.70;;;24.50;82.30;;;;;;5096396;28;20186;-86
2022/10/30 11:01:36;;;;;;;0.70;0.60;;;24.40;80.30;;;;;;5095471;28;20229;-86
2022/10/30 11:04:11;;;;;;;0.50;0.50;;;24.40;82.50;;;;;;5096109;28;20540;-86
2022/10/30 11:06:40;;;;;;;0.93;0.63;;;24.30;80.90;;;;;;5095775;28;20173;-86
2022/10/30 11:09:15;;;;;;;1.95;0.50;;;24.30;78.70;;;;;;5096060;28;20193;-85
2022/10/30 11:11:43;;;;;;;2.33;0.43;;;24.20;81.00;;;;;;5096064;28;20229;-86
2022/10/30 11:14:15;;;;;;;0.90;0.60;;;24.20;80.80;;;;;;5096738;28;20565;-86
2022/10/30 11:16:57;;;;;;;0.63;0.60;;;24.10;85.80;;;;;;5095188;28;20234;-86
2022/10/30 11:19:26;;;;;;;0.70;0.60;;;24.10;85.10;;;;;;5095161;28;20549;-85
2022/10/30 11:21:56;;;;;;;2.33;0.60;;;24.00;83.70;;;;;;5095500;28;20230;-91
2022/10/30 11:24:28;;;;;;;0.50;0.50;;;24.10;83.60;;;;;;5102872;28;20205;-86
2022/10/30 11:26:57;;;;;;;1.75;0.45;;;24.10;82.30;;;;;;5096131;28;20233;-83
2022/10/30 11:29:27;;;;;;;0.50;0.50;;;24.00;84.30;;;;;;5095442;28;20633;-83
2022/10/30 11:32:01;;;;;;;0.57;0.57;;;24.00;86.90;;;;;;5099583;28;20218;-89
2022/10/30 11:34:34;;;;;;;2.38;0.50;;;23.90;87.50;;;;;;5106784;28;20208;-90
2022/10/30 11:37:02;;;;;;;1.98;0.82;;;23.80;90.60;;;;;;5109876;28;20210;-89
2022/10/30 11:39:31;;;;;;;0.57;0.57;;;23.70;90.90;;;;;;5105786;28;20202;-85
2022/10/30 11:42:05;;;;;;;0.68;0.60;;;23.60;91.80;;;;;;5097046;28;20323;-86
2022/10/30 11:44:36;;;;;;;0.85;0.60;;;23.40;92.10;;;;;;5097706;28;20645;-86
2022/10/30 11:47:04;;;;;;;0.70;0.52;;;23.30;92.30;;;;;;5100166;28;20186;-86
2022/10/30 11:49:38;;;;;;;1.10;0.60;;;23.10;92.60;;;;;;5109699;28;20814;-86
2022/10/30 11:52:08;;;;;;;0.52;0.50;;;23.00;93.60;;;;;;5110653;28;20225;-89
2022/10/30 11:54:39;;;;;;;2.20;0.50;;;23.00;93.30;;;;;;5113165;28;20650;-90
2022/10/30 11:57:18;;;;;;;1.95;0.50;;;22.80;92.90;;;;;;5111132;28;20193;-88
2022/10/30 11:59:46;;;;;;;0.80;0.57;;;22.80;94.10;;;;;;5107506;28;20190;-87
2022/10/30 12:02:21;;;;;;;0.50;0.50;;;22.80;94.70;;;;;;5106954;28;20232;-88
2022/10/30 12:04:50;;;;;;;0.52;0.52;;;22.80;94.30;;;;;;5107865;28;20245;-87
2022/10/30 12:07:24;;;;;;;1.10;0.60;;;22.70;95.00;;;;;;5108280;28;20207;-88
2022/10/30 12:09:51;;;;;;;0.68;0.60;;;22.80;95.60;;;;;;5105430;28;20194;-89
2022/10/30 12:12:23;;;;;;;2.90;0.50;;;22.80;95.90;;;;;;5102456;28;20214;-89
2022/10/30 12:14:51;;;;;;;1.80;0.50;;;22.80;96.70;;;;;;5102222;28;20174;-88
2022/10/30 12:17:20;;;;;;;1.50;0.80;;;22.80;96.20;;;;;;5099489;28;20328;-86
2022/10/30 12:19:50;;;;;;;1.90;0.50;;;22.80;96.30;;;;;;5098450;28;20582;-86
2022/10/30 12:22:32;;;;;;;1.85;0.50;;;22.80;96.50;;;;;;5099091;28;20669;-90
2022/10/30 12:25:01;;;;;;;0.50;0.40;;;22.80;96.60;;;;;;5102326;28;20202;-89
2022/10/30 12:27:31;;;;;;;0.70;0.50;;;22.80;95.50;;;;;;5102774;28;20206;-89
2022/10/30 12:30:07;;;;;;;0.50;0.50;;;22.80;96.50;;;;;;5102656;28;20209;-90
2022/10/30 12:32:41;;;;;;;2.27;0.80;;;22.70;96.40;;;;;;5107913;28;20226;-89
2022/10/30 12:35:35;;;;;;;4.23;0.53;;;22.70;97.70;;;;;;5105382;28;20186;-89
2022/10/30 12:38:06;;;;;;;1.00;0.40;;;22.60;98.70;;;;;;5103725;28;20189;-90
2022/10/30 12:40:41;;;;;;;0.40;0.40;;;22.50;99.00;;;;;;5102796;28;20297;-90
2022/10/30 12:43:16;;;;;;;0.50;0.50;;;22.50;99.30;;;;;;5103065;28;20193;-91
2022/10/30 12:45:45;;;;;;;0.50;0.50;;;22.40;99.30;;;;;;5102213;28;20567;-90
2022/10/30 12:48:18;;;;;;;0.90;0.50;;;22.30;99.00;;;;;;5102033;28;20202;-90
2022/10/30 12:50:52;;;;;;;1.07;0.40;;;22.20;98.70;;;;;;5102647;28;20210;-88
2022/10/30 12:53:27;;;;;;;0.50;0.50;;;22.20;99.10;;;;;;5102016;28;20186;-89
2022/10/30 12:55:58;;;;;;;0.40;0.40;;;22.10;99.30;;;;;;5103821;28;20243;-89
2022/10/30 12:58:33;;;;;;;0.70;0.60;;;22.10;99.40;;;;;;5102327;28;20186;-89
2022/10/30 13:01:05;;;;;;;0.50;0.50;;;22.10;99.90;;;;;;5099921;28;20229;-85